sensor_id;sensor_type;location;lat;lon;timestamp;temperature;humidity
76172;DHT22;64929;51.178;4.138;2023-07-13T00:01:48;17.90;80.50
76172;DHT22;64929;51.178;4.138;2023-07-13T00:04:20;17.80;81.10
76172;DHT22;64929;51.178;4.138;2023-07-13T00:06:47;17.70;81.20
76172;DHT22;64929;51.178;4.138;2023-07-13T00:09:14;17.80;81.30
76172;DHT22;64929;51.178;4.138;2023-07-13T00:11:41;17.80;81.70
76172;DHT22;64929;51.178;4.138;2023-07-13T00:14:07;17.80;81.80
76172;DHT22;64929;51.178;4.138;2023-07-13T00:16:38;17.70;82.30
76172;DHT22;64929;51.178;4.138;2023-07-13T00:19:05;17.60;82.80
76172;DHT22;64929;51.178;4.138;2023-07-13T00:21:30;17.70;82.30
76172;DHT22;64929;51.178;4.138;2023-07-13T00:23:56;17.80;82.10
76172;DHT22;64929;51.178;4.138;2023-07-13T00:26:23;17.80;82.30
76172;DHT22;64929;51.178;4.138;2023-07-13T00:28:49;17.70;82.50
76172;DHT22;64929;51.178;4.138;2023-07-13T00:31:15;17.60;83.00
76172;DHT22;64929;51.178;4.138;2023-07-13T00:33:41;17.50;83.30
76172;DHT22;64929;51.178;4.138;2023-07-13T00:36:08;17.60;83.10
76172;DHT22;64929;51.178;4.138;2023-07-13T00:38:34;17.60;82.80
76172;DHT22;64929;51.178;4.138;2023-07-13T00:41:01;17.50;83.70
76172;DHT22;64929;51.178;4.138;2023-07-13T00:43:29;17.50;83.50
76172;DHT22;64929;51.178;4.138;2023-07-13T00:48:30;17.50;84.10
76172;DHT22;64929;51.178;4.138;2023-07-13T00:50:58;17.50;84.40
76172;DHT22;64929;51.178;4.138;2023-07-13T00:53:27;17.40;84.60
76172;DHT22;64929;51.178;4.138;2023-07-13T00:55:55;17.40;84.80
76172;DHT22;64929;51.178;4.138;2023-07-13T00:58:22;17.40;84.80
76172;DHT22;64929;51.178;4.138;2023-07-13T01:00:49;17.50;84.20
76172;DHT22;64929;51.178;4.138;2023-07-13T01:03:16;17.50;84.10
76172;DHT22;64929;51.178;4.138;2023-07-13T01:05:42;17.40;85.10
76172;DHT22;64929;51.178;4.138;2023-07-13T01:08:09;17.30;85.40
76172;DHT22;64929;51.178;4.138;2023-07-13T01:10:35;17.50;84.60
76172;DHT22;64929;51.178;4.138;2023-07-13T01:13:10;17.60;84.10
76172;DHT22;64929;51.178;4.138;2023-07-13T01:15:47;17.50;84.30
76172;DHT22;64929;51.178;4.138;2023-07-13T01:18:20;17.50;84.80
76172;DHT22;64929;51.178;4.138;2023-07-13T01:23:16;17.30;86.00
76172;DHT22;64929;51.178;4.138;2023-07-13T01:25:42;17.40;85.40
76172;DHT22;64929;51.178;4.138;2023-07-13T01:28:08;17.20;86.10
76172;DHT22;64929;51.178;4.138;2023-07-13T01:30:39;17.10;86.50
76172;DHT22;64929;51.178;4.138;2023-07-13T01:33:07;17.10;87.40
76172;DHT22;64929;51.178;4.138;2023-07-13T01:35:33;16.90;87.60
76172;DHT22;64929;51.178;4.138;2023-07-13T01:37:59;17.00;87.40
76172;DHT22;64929;51.178;4.138;2023-07-13T01:40:26;17.20;86.60
76172;DHT22;64929;51.178;4.138;2023-07-13T01:42:52;17.10;87.30
76172;DHT22;64929;51.178;4.138;2023-07-13T01:45:18;17.30;86.80
76172;DHT22;64929;51.178;4.138;2023-07-13T01:47:44;17.20;87.10
76172;DHT22;64929;51.178;4.138;2023-07-13T01:50:10;17.20;86.70
76172;DHT22;64929;51.178;4.138;2023-07-13T01:52:35;17.20;87.40
76172;DHT22;64929;51.178;4.138;2023-07-13T01:55:01;17.10;87.70
76172;DHT22;64929;51.178;4.138;2023-07-13T01:57:27;17.00;87.90
76172;DHT22;64929;51.178;4.138;2023-07-13T01:59:53;17.10;87.90
76172;DHT22;64929;51.178;4.138;2023-07-13T02:02:19;17.00;88.00
76172;DHT22;64929;51.178;4.138;2023-07-13T02:04:45;17.10;88.00
76172;DHT22;64929;51.178;4.138;2023-07-13T02:07:11;17.10;88.00
76172;DHT22;64929;51.178;4.138;2023-07-13T02:09:36;17.00;88.50
76172;DHT22;64929;51.178;4.138;2023-07-13T02:12:03;17.00;89.10
76172;DHT22;64929;51.178;4.138;2023-07-13T02:14:28;17.00;88.80
76172;DHT22;64929;51.178;4.138;2023-07-13T02:16:54;17.00;88.90
76172;DHT22;64929;51.178;4.138;2023-07-13T02:19:20;17.00;88.50
76172;DHT22;64929;51.178;4.138;2023-07-13T02:21:45;16.90;89.10
76172;DHT22;64929;51.178;4.138;2023-07-13T02:24:11;16.90;89.60
76172;DHT22;64929;51.178;4.138;2023-07-13T02:26:43;17.10;88.20
76172;DHT22;64929;51.178;4.138;2023-07-13T02:29:10;17.00;88.50
76172;DHT22;64929;51.178;4.138;2023-07-13T02:31:35;17.10;88.60
76172;DHT22;64929;51.178;4.138;2023-07-13T02:34:02;17.10;88.30
76172;DHT22;64929;51.178;4.138;2023-07-13T02:36:28;17.00;88.90
76172;DHT22;64929;51.178;4.138;2023-07-13T02:38:54;16.80;89.60
76172;DHT22;64929;51.178;4.138;2023-07-13T02:41:20;16.90;89.70
76172;DHT22;64929;51.178;4.138;2023-07-13T02:43:45;16.80;90.10
76172;DHT22;64929;51.178;4.138;2023-07-13T02:46:11;16.90;90.00
76172;DHT22;64929;51.178;4.138;2023-07-13T02:48:38;16.80;90.10
76172;DHT22;64929;51.178;4.138;2023-07-13T02:51:04;16.80;90.30
76172;DHT22;64929;51.178;4.138;2023-07-13T02:53:30;16.80;90.20
76172;DHT22;64929;51.178;4.138;2023-07-13T02:55:56;17.00;89.80
76172;DHT22;64929;51.178;4.138;2023-07-13T02:58:22;16.90;90.00
76172;DHT22;64929;51.178;4.138;2023-07-13T03:00:48;16.90;90.20
76172;DHT22;64929;51.178;4.138;2023-07-13T03:03:15;16.90;90.10
76172;DHT22;64929;51.178;4.138;2023-07-13T03:05:43;16.80;90.60
76172;DHT22;64929;51.178;4.138;2023-07-13T03:08:11;16.90;90.30
76172;DHT22;64929;51.178;4.138;2023-07-13T03:10:37;17.10;89.90
76172;DHT22;64929;51.178;4.138;2023-07-13T03:13:05;16.90;90.20
76172;DHT22;64929;51.178;4.138;2023-07-13T03:15:31;16.90;90.30
76172;DHT22;64929;51.178;4.138;2023-07-13T03:17:56;16.90;90.20
76172;DHT22;64929;51.178;4.138;2023-07-13T03:20:22;16.80;90.50
76172;DHT22;64929;51.178;4.138;2023-07-13T03:22:48;16.80;90.60
76172;DHT22;64929;51.178;4.138;2023-07-13T03:25:14;16.80;90.50
76172;DHT22;64929;51.178;4.138;2023-07-13T03:27:39;16.70;90.80
76172;DHT22;64929;51.178;4.138;2023-07-13T03:30:05;16.90;90.40
76172;DHT22;64929;51.178;4.138;2023-07-13T03:32:32;16.70;90.80
76172;DHT22;64929;51.178;4.138;2023-07-13T03:34:57;16.60;91.00
76172;DHT22;64929;51.178;4.138;2023-07-13T03:37:23;16.70;90.90
76172;DHT22;64929;51.178;4.138;2023-07-13T03:39:49;16.80;90.80
76172;DHT22;64929;51.178;4.138;2023-07-13T03:42:15;16.70;90.90
76172;DHT22;64929;51.178;4.138;2023-07-13T03:44:42;16.70;91.00
76172;DHT22;64929;51.178;4.138;2023-07-13T03:47:11;16.60;91.10
76172;DHT22;64929;51.178;4.138;2023-07-13T03:49:37;16.60;91.30
76172;DHT22;64929;51.178;4.138;2023-07-13T03:52:03;16.60;91.30
76172;DHT22;64929;51.178;4.138;2023-07-13T03:54:29;16.60;91.30
76172;DHT22;64929;51.178;4.138;2023-07-13T03:56:55;16.60;91.20
76172;DHT22;64929;51.178;4.138;2023-07-13T03:59:21;16.80;91.10
76172;DHT22;64929;51.178;4.138;2023-07-13T04:01:46;16.80;90.90
76172;DHT22;64929;51.178;4.138;2023-07-13T04:04:12;16.70;91.20
76172;DHT22;64929;51.178;4.138;2023-07-13T04:06:38;16.70;91.00
76172;DHT22;64929;51.178;4.138;2023-07-13T04:09:04;16.90;91.00
76172;DHT22;64929;51.178;4.138;2023-07-13T04:11:33;17.00;90.70
76172;DHT22;64929;51.178;4.138;2023-07-13T04:14:01;17.00;90.40
76172;DHT22;64929;51.178;4.138;2023-07-13T04:16:27;16.90;90.80
76172;DHT22;64929;51.178;4.138;2023-07-13T04:18:54;16.90;90.70
76172;DHT22;64929;51.178;4.138;2023-07-13T04:21:22;16.90;90.90
76172;DHT22;64929;51.178;4.138;2023-07-13T04:23:48;16.80;91.00
76172;DHT22;64929;51.178;4.138;2023-07-13T04:26:14;16.90;91.00
76172;DHT22;64929;51.178;4.138;2023-07-13T04:28:40;16.90;90.90
76172;DHT22;64929;51.178;4.138;2023-07-13T04:31:05;16.70;91.20
76172;DHT22;64929;51.178;4.138;2023-07-13T04:33:31;16.80;91.20
76172;DHT22;64929;51.178;4.138;2023-07-13T04:35:57;16.80;91.30
76172;DHT22;64929;51.178;4.138;2023-07-13T04:38:24;16.90;91.00
76172;DHT22;64929;51.178;4.138;2023-07-13T04:40:50;16.80;91.10
76172;DHT22;64929;51.178;4.138;2023-07-13T04:43:16;17.00;91.00
76172;DHT22;64929;51.178;4.138;2023-07-13T04:45:42;16.90;91.30
76172;DHT22;64929;51.178;4.138;2023-07-13T04:48:08;16.90;91.20
76172;DHT22;64929;51.178;4.138;2023-07-13T04:50:36;17.00;91.20
76172;DHT22;64929;51.178;4.138;2023-07-13T04:53:03;17.00;91.10
76172;DHT22;64929;51.178;4.138;2023-07-13T04:55:30;17.10;91.30
76172;DHT22;64929;51.178;4.138;2023-07-13T04:57:56;17.20;91.10
76172;DHT22;64929;51.178;4.138;2023-07-13T05:00:24;17.10;90.90
76172;DHT22;64929;51.178;4.138;2023-07-13T05:02:50;17.20;90.90
76172;DHT22;64929;51.178;4.138;2023-07-13T05:05:16;17.20;90.90
76172;DHT22;64929;51.178;4.138;2023-07-13T05:07:42;17.00;91.10
76172;DHT22;64929;51.178;4.138;2023-07-13T05:10:09;17.10;91.30
76172;DHT22;64929;51.178;4.138;2023-07-13T05:12:35;17.10;91.10
76172;DHT22;64929;51.178;4.138;2023-07-13T05:15:01;17.10;91.00
76172;DHT22;64929;51.178;4.138;2023-07-13T05:17:27;17.00;91.20
76172;DHT22;64929;51.178;4.138;2023-07-13T05:19:53;17.10;91.30
76172;DHT22;64929;51.178;4.138;2023-07-13T05:22:18;17.20;91.00
76172;DHT22;64929;51.178;4.138;2023-07-13T05:24:44;17.40;90.80
76172;DHT22;64929;51.178;4.138;2023-07-13T05:27:09;17.40;90.60
76172;DHT22;64929;51.178;4.138;2023-07-13T05:29:35;17.30;90.60
76172;DHT22;64929;51.178;4.138;2023-07-13T05:32:01;17.30;90.90
76172;DHT22;64929;51.178;4.138;2023-07-13T05:34:27;17.20;90.90
76172;DHT22;64929;51.178;4.138;2023-07-13T05:36:52;17.20;91.00
76172;DHT22;64929;51.178;4.138;2023-07-13T05:39:18;17.30;90.40
76172;DHT22;64929;51.178;4.138;2023-07-13T05:41:44;17.30;90.80
76172;DHT22;64929;51.178;4.138;2023-07-13T05:44:10;17.40;90.70
76172;DHT22;64929;51.178;4.138;2023-07-13T05:46:36;17.50;90.50
76172;DHT22;64929;51.178;4.138;2023-07-13T05:49:02;17.50;90.50
76172;DHT22;64929;51.178;4.138;2023-07-13T05:51:29;17.60;90.20
76172;DHT22;64929;51.178;4.138;2023-07-13T05:53:54;17.60;90.30
76172;DHT22;64929;51.178;4.138;2023-07-13T05:56:20;17.50;90.20
76172;DHT22;64929;51.178;4.138;2023-07-13T05:58:48;17.50;90.50
76172;DHT22;64929;51.178;4.138;2023-07-13T06:01:15;17.50;90.20
76172;DHT22;64929;51.178;4.138;2023-07-13T06:03:41;17.50;90.40
76172;DHT22;64929;51.178;4.138;2023-07-13T06:06:09;17.40;90.60
76172;DHT22;64929;51.178;4.138;2023-07-13T06:08:35;17.60;90.40
76172;DHT22;64929;51.178;4.138;2023-07-13T06:11:06;17.70;90.30
76172;DHT22;64929;51.178;4.138;2023-07-13T06:13:32;17.70;90.30
76172;DHT22;64929;51.178;4.138;2023-07-13T06:15:59;17.90;89.40
76172;DHT22;64929;51.178;4.138;2023-07-13T06:18:25;17.80;89.40
76172;DHT22;64929;51.178;4.138;2023-07-13T06:20:50;17.80;90.00
76172;DHT22;64929;51.178;4.138;2023-07-13T06:23:16;17.90;89.80
76172;DHT22;64929;51.178;4.138;2023-07-13T06:25:43;18.00;89.70
76172;DHT22;64929;51.178;4.138;2023-07-13T06:28:09;18.10;89.10
76172;DHT22;64929;51.178;4.138;2023-07-13T06:30:35;18.00;89.40
76172;DHT22;64929;51.178;4.138;2023-07-13T06:33:03;18.00;89.50
76172;DHT22;64929;51.178;4.138;2023-07-13T06:35:28;18.00;89.50
76172;DHT22;64929;51.178;4.138;2023-07-13T06:37:54;17.90;89.30
76172;DHT22;64929;51.178;4.138;2023-07-13T06:40:19;18.10;89.40
76172;DHT22;64929;51.178;4.138;2023-07-13T06:42:45;18.50;88.30
76172;DHT22;64929;51.178;4.138;2023-07-13T06:45:11;18.40;88.60
76172;DHT22;64929;51.178;4.138;2023-07-13T06:47:37;18.50;87.70
76172;DHT22;64929;51.178;4.138;2023-07-13T06:50:02;18.40;87.50
76172;DHT22;64929;51.178;4.138;2023-07-13T06:52:28;18.60;87.10
76172;DHT22;64929;51.178;4.138;2023-07-13T06:54:54;18.70;87.00
76172;DHT22;64929;51.178;4.138;2023-07-13T06:57:19;18.60;86.80
76172;DHT22;64929;51.178;4.138;2023-07-13T06:59:45;18.60;87.40
76172;DHT22;64929;51.178;4.138;2023-07-13T07:02:11;18.50;88.00
76172;DHT22;64929;51.178;4.138;2023-07-13T07:04:37;18.50;87.60
76172;DHT22;64929;51.178;4.138;2023-07-13T07:07:03;18.30;88.20
76172;DHT22;64929;51.178;4.138;2023-07-13T07:09:29;18.60;88.60
76172;DHT22;64929;51.178;4.138;2023-07-13T07:11:57;18.50;88.50
76172;DHT22;64929;51.178;4.138;2023-07-13T07:14:22;18.50;88.10
76172;DHT22;64929;51.178;4.138;2023-07-13T07:16:49;18.40;89.10
76172;DHT22;64929;51.178;4.138;2023-07-13T07:19:16;18.70;88.50
76172;DHT22;64929;51.178;4.138;2023-07-13T07:21:41;18.70;87.50
76172;DHT22;64929;51.178;4.138;2023-07-13T07:24:07;18.70;88.00
76172;DHT22;64929;51.178;4.138;2023-07-13T07:26:33;18.90;87.20
76172;DHT22;64929;51.178;4.138;2023-07-13T07:28:59;18.90;86.80
76172;DHT22;64929;51.178;4.138;2023-07-13T07:31:24;18.80;87.20
76172;DHT22;64929;51.178;4.138;2023-07-13T07:33:50;19.00;86.80
76172;DHT22;64929;51.178;4.138;2023-07-13T07:36:16;19.10;86.90
76172;DHT22;64929;51.178;4.138;2023-07-13T07:38:43;19.30;85.90
76172;DHT22;64929;51.178;4.138;2023-07-13T07:41:09;19.20;85.90
76172;DHT22;64929;51.178;4.138;2023-07-13T07:43:35;19.20;85.70
76172;DHT22;64929;51.178;4.138;2023-07-13T07:46:01;19.20;86.70
76172;DHT22;64929;51.178;4.138;2023-07-13T07:48:27;19.40;86.00
76172;DHT22;64929;51.178;4.138;2023-07-13T07:50:53;19.20;85.70
76172;DHT22;64929;51.178;4.138;2023-07-13T07:53:18;19.20;86.00
76172;DHT22;64929;51.178;4.138;2023-07-13T07:55:44;19.30;85.70
76172;DHT22;64929;51.178;4.138;2023-07-13T07:58:10;19.20;86.00
76172;DHT22;64929;51.178;4.138;2023-07-13T08:00:36;19.20;86.00
76172;DHT22;64929;51.178;4.138;2023-07-13T08:03:02;19.40;84.70
76172;DHT22;64929;51.178;4.138;2023-07-13T08:05:28;19.60;85.10
76172;DHT22;64929;51.178;4.138;2023-07-13T08:07:54;19.60;84.90
76172;DHT22;64929;51.178;4.138;2023-07-13T08:10:20;20.00;83.20
76172;DHT22;64929;51.178;4.138;2023-07-13T08:12:46;20.10;82.70
76172;DHT22;64929;51.178;4.138;2023-07-13T08:15:14;20.50;82.50
76172;DHT22;64929;51.178;4.138;2023-07-13T08:17:40;20.50;80.30
76172;DHT22;64929;51.178;4.138;2023-07-13T08:20:06;20.30;81.40
76172;DHT22;64929;51.178;4.138;2023-07-13T08:22:32;20.20;81.70
76172;DHT22;64929;51.178;4.138;2023-07-13T08:24:59;20.30;81.40
76172;DHT22;64929;51.178;4.138;2023-07-13T08:27:26;20.20;82.30
76172;DHT22;64929;51.178;4.138;2023-07-13T08:29:53;20.40;80.70
76172;DHT22;64929;51.178;4.138;2023-07-13T08:32:20;20.50;81.10
76172;DHT22;64929;51.178;4.138;2023-07-13T08:34:46;20.50;79.70
76172;DHT22;64929;51.178;4.138;2023-07-13T08:37:13;20.40;80.20
76172;DHT22;64929;51.178;4.138;2023-07-13T08:39:39;20.40;82.00
76172;DHT22;64929;51.178;4.138;2023-07-13T08:48:07;21.20;75.30
76172;DHT22;64929;51.178;4.138;2023-07-13T08:50:42;21.40;75.50
76172;DHT22;64929;51.178;4.138;2023-07-13T08:53:13;21.40;72.40
76172;DHT22;64929;51.178;4.138;2023-07-13T08:55:40;21.00;73.00
76172;DHT22;64929;51.178;4.138;2023-07-13T08:58:12;21.00;74.50
76172;DHT22;64929;51.178;4.138;2023-07-13T09:00:48;21.10;74.70
76172;DHT22;64929;51.178;4.138;2023-07-13T09:03:30;21.50;73.70
76172;DHT22;64929;51.178;4.138;2023-07-13T09:06:00;21.70;72.20
76172;DHT22;64929;51.178;4.138;2023-07-13T09:16:34;21.20;72.20
76172;DHT22;64929;51.178;4.138;2023-07-13T09:19:05;21.50;71.50
76172;DHT22;64929;51.178;4.138;2023-07-13T09:21:41;21.60;72.00
76172;DHT22;64929;51.178;4.138;2023-07-13T09:24:37;21.50;71.70
76172;DHT22;64929;51.178;4.138;2023-07-13T09:27:17;21.40;70.90
76172;DHT22;64929;51.178;4.138;2023-07-13T09:30:02;21.50;73.00
76172;DHT22;64929;51.178;4.138;2023-07-13T09:32:29;21.80;72.10
76172;DHT22;64929;51.178;4.138;2023-07-13T09:34:55;21.80;70.90
76172;DHT22;64929;51.178;4.138;2023-07-13T09:37:23;22.00;72.30
76172;DHT22;64929;51.178;4.138;2023-07-13T09:39:53;22.20;69.10
76172;DHT22;64929;51.178;4.138;2023-07-13T09:42:22;22.30;65.70
76172;DHT22;64929;51.178;4.138;2023-07-13T09:44:52;22.30;66.00
76172;DHT22;64929;51.178;4.138;2023-07-13T09:47:19;22.10;68.20
76172;DHT22;64929;51.178;4.138;2023-07-13T09:49:48;22.00;67.90
76172;DHT22;64929;51.178;4.138;2023-07-13T09:52:18;21.90;67.30
76172;DHT22;64929;51.178;4.138;2023-07-13T09:54:48;21.90;68.50
76172;DHT22;64929;51.178;4.138;2023-07-13T09:57:24;21.70;67.10
76172;DHT22;64929;51.178;4.138;2023-07-13T09:59:52;21.70;68.80
76172;DHT22;64929;51.178;4.138;2023-07-13T10:02:25;22.00;68.70
76172;DHT22;64929;51.178;4.138;2023-07-13T10:05:06;22.30;65.90
76172;DHT22;64929;51.178;4.138;2023-07-13T10:07:38;22.30;66.30
76172;DHT22;64929;51.178;4.138;2023-07-13T10:10:16;22.20;65.90
76172;DHT22;64929;51.178;4.138;2023-07-13T10:12:42;22.30;64.30
76172;DHT22;64929;51.178;4.138;2023-07-13T10:15:16;22.50;63.40
76172;DHT22;64929;51.178;4.138;2023-07-13T10:17:43;22.60;64.80
76172;DHT22;64929;51.178;4.138;2023-07-13T10:20:10;22.50;65.30
76172;DHT22;64929;51.178;4.138;2023-07-13T10:25:24;22.40;66.40
76172;DHT22;64929;51.178;4.138;2023-07-13T10:27:53;22.80;65.60
76172;DHT22;64929;51.178;4.138;2023-07-13T10:30:25;23.00;64.60
76172;DHT22;64929;51.178;4.138;2023-07-13T10:32:54;23.10;63.60
76172;DHT22;64929;51.178;4.138;2023-07-13T10:35:21;23.00;63.50
76172;DHT22;64929;51.178;4.138;2023-07-13T10:38:01;23.00;63.80
76172;DHT22;64929;51.178;4.138;2023-07-13T10:43:18;23.40;62.80
76172;DHT22;64929;51.178;4.138;2023-07-13T10:45:46;23.20;62.40
76172;DHT22;64929;51.178;4.138;2023-07-13T10:48:16;23.30;61.60
76172;DHT22;64929;51.178;4.138;2023-07-13T10:50:44;23.40;62.10
76172;DHT22;64929;51.178;4.138;2023-07-13T10:53:28;23.30;62.30
76172;DHT22;64929;51.178;4.138;2023-07-13T10:55:58;23.20;62.50
76172;DHT22;64929;51.178;4.138;2023-07-13T10:58:34;23.30;62.10
76172;DHT22;64929;51.178;4.138;2023-07-13T11:01:07;23.00;66.10
76172;DHT22;64929;51.178;4.138;2023-07-13T11:03:50;22.90;68.40
76172;DHT22;64929;51.178;4.138;2023-07-13T11:08:52;21.30;77.90
76172;DHT22;64929;51.178;4.138;2023-07-13T11:21:31;19.80;87.40
76172;DHT22;64929;51.178;4.138;2023-07-13T11:24:16;19.70;90.00
76172;DHT22;64929;51.178;4.138;2023-07-13T11:31:58;19.60;88.50
76172;DHT22;64929;51.178;4.138;2023-07-13T11:34:31;19.40;90.40
76172;DHT22;64929;51.178;4.138;2023-07-13T11:37:00;19.40;91.10
76172;DHT22;64929;51.178;4.138;2023-07-13T11:39:32;19.30;91.30
76172;DHT22;64929;51.178;4.138;2023-07-13T11:42:01;19.30;91.20
76172;DHT22;64929;51.178;4.138;2023-07-13T11:44:29;19.40;91.60
76172;DHT22;64929;51.178;4.138;2023-07-13T11:46:57;19.50;91.70
76172;DHT22;64929;51.178;4.138;2023-07-13T11:49:28;19.30;91.30
76172;DHT22;64929;51.178;4.138;2023-07-13T11:51:54;19.40;92.00
76172;DHT22;64929;51.178;4.138;2023-07-13T11:54:28;19.80;91.60
76172;DHT22;64929;51.178;4.138;2023-07-13T11:57:06;20.00;90.50
76172;DHT22;64929;51.178;4.138;2023-07-13T11:59:39;20.30;90.30
76172;DHT22;64929;51.178;4.138;2023-07-13T12:02:15;20.30;86.80
76172;DHT22;64929;51.178;4.138;2023-07-13T12:04:42;20.50;86.20
76172;DHT22;64929;51.178;4.138;2023-07-13T12:07:15;20.50;86.00
76172;DHT22;64929;51.178;4.138;2023-07-13T12:09:42;20.70;88.80
76172;DHT22;64929;51.178;4.138;2023-07-13T12:12:12;20.50;90.20
76172;DHT22;64929;51.178;4.138;2023-07-13T12:14:38;20.70;87.30
76172;DHT22;64929;51.178;4.138;2023-07-13T12:17:11;20.70;87.70
76172;DHT22;64929;51.178;4.138;2023-07-13T12:19:38;20.60;87.00
76172;DHT22;64929;51.178;4.138;2023-07-13T12:22:04;20.60;85.60
76172;DHT22;64929;51.178;4.138;2023-07-13T12:24:30;20.20;84.90
76172;DHT22;64929;51.178;4.138;2023-07-13T12:27:01;20.30;86.30
76172;DHT22;64929;51.178;4.138;2023-07-13T12:29:28;20.50;86.20
76172;DHT22;64929;51.178;4.138;2023-07-13T12:31:54;20.90;85.60
76172;DHT22;64929;51.178;4.138;2023-07-13T12:34:24;21.00;84.30
76172;DHT22;64929;51.178;4.138;2023-07-13T12:36:59;21.20;84.20
76172;DHT22;64929;51.178;4.138;2023-07-13T12:39:35;21.80;81.10
76172;DHT22;64929;51.178;4.138;2023-07-13T12:47:23;21.80;79.60
76172;DHT22;64929;51.178;4.138;2023-07-13T12:49:55;22.00;80.50
76172;DHT22;64929;51.178;4.138;2023-07-13T12:52:29;22.20;79.20
76172;DHT22;64929;51.178;4.138;2023-07-13T12:54:58;22.20;80.60
76172;DHT22;64929;51.178;4.138;2023-07-13T12:57:25;22.10;82.90
76172;DHT22;64929;51.178;4.138;2023-07-13T12:59:55;22.00;79.90
76172;DHT22;64929;51.178;4.138;2023-07-13T13:02:33;22.30;78.40
76172;DHT22;64929;51.178;4.138;2023-07-13T13:05:00;22.40;80.10
76172;DHT22;64929;51.178;4.138;2023-07-13T13:07:26;21.80;80.70
76172;DHT22;64929;51.178;4.138;2023-07-13T13:09:52;22.00;79.40
76172;DHT22;64929;51.178;4.138;2023-07-13T13:12:22;21.80;79.50
76172;DHT22;64929;51.178;4.138;2023-07-13T13:14:51;22.20;78.00
76172;DHT22;64929;51.178;4.138;2023-07-13T13:17:21;22.00;78.60
76172;DHT22;64929;51.178;4.138;2023-07-13T13:19:49;22.60;76.50
76172;DHT22;64929;51.178;4.138;2023-07-13T13:22:15;22.80;76.50
76172;DHT22;64929;51.178;4.138;2023-07-13T13:24:41;23.50;73.80
76172;DHT22;64929;51.178;4.138;2023-07-13T13:27:15;23.30;74.00
76172;DHT22;64929;51.178;4.138;2023-07-13T13:29:42;23.40;74.20
76172;DHT22;64929;51.178;4.138;2023-07-13T13:32:12;23.20;74.40
76172;DHT22;64929;51.178;4.138;2023-07-13T13:34:38;23.10;74.70
76172;DHT22;64929;51.178;4.138;2023-07-13T13:37:11;23.20;76.40
76172;DHT22;64929;51.178;4.138;2023-07-13T13:39:41;22.70;73.70
76172;DHT22;64929;51.178;4.138;2023-07-13T13:42:09;23.20;71.60
76172;DHT22;64929;51.178;4.138;2023-07-13T13:44:35;23.20;72.10
76172;DHT22;64929;51.178;4.138;2023-07-13T13:47:01;23.40;73.50
76172;DHT22;64929;51.178;4.138;2023-07-13T13:49:28;23.40;73.90
76172;DHT22;64929;51.178;4.138;2023-07-13T13:51:55;23.40;72.30
76172;DHT22;64929;51.178;4.138;2023-07-13T13:54:23;23.30;73.00
76172;DHT22;64929;51.178;4.138;2023-07-13T13:56:51;23.30;71.50
76172;DHT22;64929;51.178;4.138;2023-07-13T13:59:18;23.40;73.20
76172;DHT22;64929;51.178;4.138;2023-07-13T14:01:45;24.00;71.50
76172;DHT22;64929;51.178;4.138;2023-07-13T14:04:16;24.00;68.60
76172;DHT22;64929;51.178;4.138;2023-07-13T14:06:43;24.10;66.70
76172;DHT22;64929;51.178;4.138;2023-07-13T14:09:15;24.10;68.20
76172;DHT22;64929;51.178;4.138;2023-07-13T14:11:42;23.70;66.80
76172;DHT22;64929;51.178;4.138;2023-07-13T14:14:30;23.40;67.00
76172;DHT22;64929;51.178;4.138;2023-07-13T14:16:55;23.10;69.40
76172;DHT22;64929;51.178;4.138;2023-07-13T14:19:22;23.20;69.30
76172;DHT22;64929;51.178;4.138;2023-07-13T14:21:47;22.80;70.70
76172;DHT22;64929;51.178;4.138;2023-07-13T14:24:14;22.70;72.60
76172;DHT22;64929;51.178;4.138;2023-07-13T14:26:41;23.30;71.80
76172;DHT22;64929;51.178;4.138;2023-07-13T14:29:17;23.90;70.30
76172;DHT22;64929;51.178;4.138;2023-07-13T14:31:43;24.20;69.20
76172;DHT22;64929;51.178;4.138;2023-07-13T14:34:10;23.90;68.40
76172;DHT22;64929;51.178;4.138;2023-07-13T14:36:41;23.50;70.50
76172;DHT22;64929;51.178;4.138;2023-07-13T14:39:17;23.50;70.80
76172;DHT22;64929;51.178;4.138;2023-07-13T14:41:44;23.30;70.40
76172;DHT22;64929;51.178;4.138;2023-07-13T14:44:14;23.00;72.00
76172;DHT22;64929;51.178;4.138;2023-07-13T14:46:41;22.80;72.20
76172;DHT22;64929;51.178;4.138;2023-07-13T14:51:38;23.90;70.30
76172;DHT22;64929;51.178;4.138;2023-07-13T14:54:05;25.10;66.70
76172;DHT22;64929;51.178;4.138;2023-07-13T14:56:31;26.10;64.30
76172;DHT22;64929;51.178;4.138;2023-07-13T14:58:57;26.80;63.40
76172;DHT22;64929;51.178;4.138;2023-07-13T15:01:23;26.10;61.40
76172;DHT22;64929;51.178;4.138;2023-07-13T15:03:51;25.30;63.90
76172;DHT22;64929;51.178;4.138;2023-07-13T15:06:18;25.10;64.10
76172;DHT22;64929;51.178;4.138;2023-07-13T15:08:45;25.30;64.30
76172;DHT22;64929;51.178;4.138;2023-07-13T15:11:12;25.70;62.50
76172;DHT22;64929;51.178;4.138;2023-07-13T15:13:39;25.20;64.10
76172;DHT22;64929;51.178;4.138;2023-07-13T15:16:14;24.70;65.80
76172;DHT22;64929;51.178;4.138;2023-07-13T15:18:40;24.80;65.10
76172;DHT22;64929;51.178;4.138;2023-07-13T15:21:10;24.50;65.30
76172;DHT22;64929;51.178;4.138;2023-07-13T15:23:38;24.40;66.20
76172;DHT22;64929;51.178;4.138;2023-07-13T15:26:04;24.40;68.70
76172;DHT22;64929;51.178;4.138;2023-07-13T15:28:29;24.50;66.50
76172;DHT22;64929;51.178;4.138;2023-07-13T15:30:55;23.90;66.80
76172;DHT22;64929;51.178;4.138;2023-07-13T15:33:24;24.20;66.70
76172;DHT22;64929;51.178;4.138;2023-07-13T15:35:51;24.10;66.40
76172;DHT22;64929;51.178;4.138;2023-07-13T15:38:28;24.30;67.50
76172;DHT22;64929;51.178;4.138;2023-07-13T15:40:55;24.20;68.20
76172;DHT22;64929;51.178;4.138;2023-07-13T15:43:22;24.60;64.80
76172;DHT22;64929;51.178;4.138;2023-07-13T15:45:49;25.40;64.10
76172;DHT22;64929;51.178;4.138;2023-07-13T15:48:21;25.90;63.20
76172;DHT22;64929;51.178;4.138;2023-07-13T15:50:52;27.00;61.40
76172;DHT22;64929;51.178;4.138;2023-07-13T15:53:22;28.10;56.20
76172;DHT22;64929;51.178;4.138;2023-07-13T15:55:49;28.20;54.50
76172;DHT22;64929;51.178;4.138;2023-07-13T15:58:16;28.20;55.70
76172;DHT22;64929;51.178;4.138;2023-07-13T16:00:41;27.90;57.60
76172;DHT22;64929;51.178;4.138;2023-07-13T16:03:08;27.00;58.50
76172;DHT22;64929;51.178;4.138;2023-07-13T16:05:34;26.50;61.90
76172;DHT22;64929;51.178;4.138;2023-07-13T16:08:01;26.20;59.70
76172;DHT22;64929;51.178;4.138;2023-07-13T16:10:35;25.80;62.30
76172;DHT22;64929;51.178;4.138;2023-07-13T16:13:24;25.70;62.10
76172;DHT22;64929;51.178;4.138;2023-07-13T16:15:51;25.40;61.70
76172;DHT22;64929;51.178;4.138;2023-07-13T16:18:17;25.30;58.70
76172;DHT22;64929;51.178;4.138;2023-07-13T16:20:45;25.10;61.50
76172;DHT22;64929;51.178;4.138;2023-07-13T16:23:12;25.00;59.10
76172;DHT22;64929;51.178;4.138;2023-07-13T16:25:39;25.00;62.70